Stations météo

réclame
Mon MeteoGroup
Puerto de san Isidro, Espagne (8057): Température de l'air & dewpoint: 13.01.2020 21:00:00 - 19.01.2020 21:00:00 (CET)Puerto de san Isidro, Espagne (8057): Vitesse du vent & gusts: 13.01.2020 21:00:00 - 19.01.2020 21:00:00 (CET)Puerto de san Isidro, Espagne (8057): Direction du vent: 13.01.2020 21:00:00 - 19.01.2020 21:00:00 (CET)Puerto de san Isidro, Espagne (8057): visibility: 13.01.2020 21:00:00 - 19.01.2020 21:00:00 (CET)Puerto de san Isidro, Espagne (8057): Ensoleillement: 13.01.2020 21:00:00 - 19.01.2020 21:00:00 (CET)Puerto de san Isidro, Espagne (8057): Quantités de précipitations: 13.01.2020 21:00:00 - 19.01.2020 21:00:00 (CET)
Date & Time tt [°C] td [°C] ff [km/h] ff [knt] fx [km/h] fx [knt] dd vv [km] sd [min] rr [mm]
19.01.2020 21:00:00 - - - - - - - - - -
19.01.2020 20:00:00 -3,6 -6,0 18 10 53 29 N 1,4 0 0,0
19.01.2020 19:00:00 -4,0 -7,5 14 8 46 25 NNE 20 0 -
19.01.2020 18:00:00 -4,0 -7,8 14 8 37 20 NE 20 0 0,0
19.01.2020 17:00:00 -3,3 -7,5 19 10 42 23 NNE 20 5 0,0
19.01.2020 16:00:00 -2,6 -5,7 14 8 46 25 N 20 13 0,0
19.01.2020 15:00:00 -2,6 -4,8 19 10 49 27 NNW 20 21 0,0
19.01.2020 14:00:00 -2,5 -5,7 21 11 39 21 NW 20 24 0,0
19.01.2020 13:00:00 -1,6 -3,3 16 9 35 19 NNW 0,9 10 -
19.01.2020 12:00:00 -2,3 -3,9 18 10 42 23 NNW 1,7 4 0,0
19.01.2020 11:00:00 -2,4 -3,6 15 8 54 29 NW 0,7 0 0,0
19.01.2020 10:00:00 -2,3 -3,9 22 12 42 23 NNW 0,7 0 0,0
19.01.2020 09:00:00 -1,6 -2,7 14 8 48 26 NNE 1,9 0 0,0
19.01.2020 08:00:00 -1,4 -2,5 13 7 36 20 NW 0,6 0 0,0
19.01.2020 07:00:00 -1,2 -2,2 9 5 40 22 NNE 0,5 0 -
19.01.2020 06:00:00 -0,4 -1,4 18 10 44 24 NNW 1,1 0 0,0
19.01.2020 05:00:00 0,2 -0,7 19 11 54 29 NW 1,7 0 0,0
19.01.2020 04:00:00 0,3 -0,5 20 11 55 30 NW 1,7 0 0,0
19.01.2020 03:00:00 0,0 -1,0 29 16 53 29 WNW 1,2 0 0,0
19.01.2020 02:00:00 0,1 -0,7 16 9 41 22 NW 1,3 0 0,0
19.01.2020 01:00:00 0,1 -0,7 17 9 45 24 WNW 3,0 0 -
19.01.2020 00:00:00 0,2 -0,7 25 14 57 31 W 1,2 0 0,0
18.01.2020 23:00:00 0,1 -1,0 29 16 53 29 W 3,3 0 0,0
18.01.2020 22:00:00 0,1 -1,0 31 17 52 28 W 2,7 0 0,0
18.01.2020 21:00:00 0,1 -1,0 29 16 52 28 WNW 5 0 0,0
18.01.2020 20:00:00 0,2 -1,2 34 18 56 30 WNW 6 0 0,0
18.01.2020 19:00:00 0,1 -1,4 37 20 61 33 W 2,5 0 -
18.01.2020 18:00:00 0,8 -0,5 17 9 48 26 NW 6 0 1,6
18.01.2020 17:00:00 1,1 -0,5 27 15 51 28 WNW 20 0 0,4
18.01.2020 16:00:00 1,1 -0,7 16 8 42 23 NNW 1,8 0 1,0
18.01.2020 15:00:00 3,7 -0,3 19 11 33 18 SW 20 1 0,6
18.01.2020 14:00:00 3,4 0,2 14 8 46 25 SW 20 0 0,0
18.01.2020 13:00:00 2,5 -0,3 24 13 50 27 S 4,2 18 -
18.01.2020 12:00:00 2,9 0,0 9 5 53 29 SSE 4,6 43 0,0
18.01.2020 11:00:00 2,2 -0,5 12 7 53 29 SW 9 5 0,0
18.01.2020 10:00:00 1,7 -1,4 18 10 52 28 S 7 0 0,0
18.01.2020 09:00:00 1,2 -2,2 18 10 46 25 SSE 20 0 0,0
18.01.2020 08:00:00 0,9 -3,0 20 11 55 30 ESE 20 0 0,0
18.01.2020 07:00:00 1,0 -3,6 15 8 54 29 SE 20 0 -
18.01.2020 06:00:00 0,2 -3,0 22 12 54 29 E 20 0 0,0
18.01.2020 05:00:00 2,3 -7,5 18 10 44 24 SW 20 0 0,0
18.01.2020 04:00:00 -0,4 -3,9 21 12 35 19 ENE 20 0 0,0
18.01.2020 03:00:00 0,7 -5,4 8 4 36 20 SSE 20 0 0,0
18.01.2020 02:00:00 -0,7 -3,9 6 4 13 7 E 20 0 0,0
18.01.2020 01:00:00 -0,6 -3,9 10 6 23 12 ENE 20 0 -
18.01.2020 00:00:00 -0,5 -4,5 15 8 29 16 E 20 0 0,0
17.01.2020 23:00:00 -0,9 -3,6 9 5 24 13 E 20 0 0,0
17.01.2020 22:00:00 -0,7 -3,9 15 8 25 13 ENE 20 0 0,0
17.01.2020 21:00:00 -1,2 -4,2 9 5 17 9 E 20 0 0,0
17.01.2020 20:00:00 -1,2 -4,8 2 1 10 5 E 20 0 0,0
17.01.2020 19:00:00 -1,4 -5,4 4 2 9 5 WNW 20 0 -
17.01.2020 18:00:00 0,1 -6,0 8 5 14 7 SW 20 0 0,0
17.01.2020 17:00:00 0,8 -5,4 10 6 22 12 W 20 0 0,0
17.01.2020 16:00:00 1,3 -5,7 14 7 21 12 W 20 58 0,0
17.01.2020 15:00:00 2,0 -5,4 15 8 24 13 W 20 58 0,0
17.01.2020 14:00:00 1,7 -3,9 14 8 25 14 WNW 20 43 0,0
17.01.2020 13:00:00 0,7 -3,9 19 10 29 16 W 20 39 -
17.01.2020 12:00:00 0,1 -3,0 19 11 27 14 W 20 15 0,0
17.01.2020 11:00:00 0,4 -2,5 16 8 32 17 W 20 11 0,0
17.01.2020 10:00:00 0,7 -2,0 9 5 23 12 W 20 17 0,0
17.01.2020 09:00:00 0,2 -1,7 5 3 19 10 W 20 0 0,0
17.01.2020 08:00:00 0,2 -1,4 6 3 21 11 WNW 20 0 0,0
17.01.2020 07:00:00 0,9 -1,4 14 7 31 17 W 20 0 -
17.01.2020 06:00:00 1,9 -3,3 16 8 32 17 W 20 0 0,0
17.01.2020 05:00:00 2,2 -2,5 12 6 30 16 W 20 0 0,0
17.01.2020 04:00:00 2,4 -2,2 14 8 35 19 W 20 0 0,0
17.01.2020 03:00:00 2,9 -2,0 18 10 44 24 W 20 0 0,0
17.01.2020 02:00:00 3,0 -1,7 13 7 32 17 W 20 0 0,0
17.01.2020 01:00:00 3,0 -1,2 10 5 36 19 W 20 0 -
17.01.2020 00:00:00 3,3 -1,2 11 6 40 21 W 20 0 0,0
16.01.2020 23:00:00 3,5 -1,0 16 9 49 26 SW 19 0 0,0
16.01.2020 22:00:00 3,6 0,0 24 13 52 28 SSW 18 0 1,2
16.01.2020 21:00:00 3,4 0,2 17 9 55 30 SSE 8 0 1,8
16.01.2020 20:00:00 3,5 0,4 21 11 59 32 SSE 8 0 1,4
16.01.2020 19:00:00 3,6 0,2 25 13 63 34 SSE 10 0 -
16.01.2020 18:00:00 3,9 0,9 20 11 65 35 SSE 10 0 1,2
16.01.2020 17:00:00 4,1 0,9 19 11 76 41 SSE 20 0 0,0
16.01.2020 16:00:00 4,3 1,1 21 11 75 40 SSE 20 0 0,0
16.01.2020 15:00:00 4,9 0,9 26 14 84 46 S 20 0 0,0
16.01.2020 14:00:00 4,6 1,7 27 15 61 33 S 20 0 0,4
16.01.2020 13:00:00 4,7 1,9 27 14 70 38 S 12 0 -
16.01.2020 12:00:00 4,6 2,9 30 16 79 42 S 2,8 0 2,4
16.01.2020 11:00:00 5,1 2,5 29 16 71 39 S 5 0 2,0
16.01.2020 10:00:00 5,1 2,3 18 10 68 37 SSW 6 0 1,2
16.01.2020 09:00:00 5,4 2,3 27 15 64 35 S 6 0 2,2
16.01.2020 08:00:00 5,3 2,9 24 13 67 36 S 2,4 0 2,4
16.01.2020 07:00:00 5,5 2,5 23 12 62 34 S 8 0 -
16.01.2020 06:00:00 5,6 2,3 21 12 61 33 S 5 0 0,4
16.01.2020 05:00:00 5,6 1,1 21 11 61 33 SSW 20 0 0,0
16.01.2020 04:00:00 5,5 1,3 21 11 57 31 SSW 20 0 0,0
16.01.2020 03:00:00 5,8 2,5 25 13 61 33 S 11 0 0,2
16.01.2020 02:00:00 5,9 2,7 25 14 57 31 S 20 0 0,6
16.01.2020 01:00:00 4,6 2,7 12 6 46 25 E 3,7 0 -
16.01.2020 00:00:00 5,3 2,7 22 12 61 33 S 13 0 0,0
15.01.2020 23:00:00 5,0 1,3 21 12 50 27 SSW 20 0 0,0
15.01.2020 22:00:00 3,8 -0,5 15 8 53 29 SSE 20 0 0,0
15.01.2020 21:00:00 3,6 -0,7 13 7 38 21 E 20 0 0,0
15.01.2020 20:00:00 3,9 -1,0 15 8 42 23 SE 20 0 0,0
15.01.2020 19:00:00 3,3 0,2 10 5 39 21 E 20 0 -
15.01.2020 18:00:00 4,0 -0,7 21 11 48 26 SSW 20 0 0,0
15.01.2020 17:00:00 4,1 -0,3 11 6 39 21 ESE 20 0 0,0
15.01.2020 16:00:00 4,4 -0,5 15 8 40 21 SSE 20 49 0,0
15.01.2020 15:00:00 5,0 -0,5 16 9 41 22 S 20 59 0,0
15.01.2020 14:00:00 4,8 -0,7 18 10 39 21 SW 20 35 0,0
15.01.2020 13:00:00 4,2 1,5 13 7 33 18 SSE 20 2 -
15.01.2020 12:00:00 3,3 1,7 20 11 33 18 E 20 6 0,0
15.01.2020 11:00:00 2,7 0,9 22 12 35 19 E 20 1 1,6
15.01.2020 10:00:00 3,3 0,9 14 8 35 19 SE 10 0 1,4
15.01.2020 09:00:00 3,3 1,3 12 7 42 23 SE 7 0 1,2
15.01.2020 08:00:00 3,2 1,7 19 10 51 27 S 2,7 0 1,2
15.01.2020 07:00:00 3,4 1,7 21 12 65 35 S 11 0 -
15.01.2020 06:00:00 3,3 1,5 24 13 69 37 S 9 0 1,2
15.01.2020 05:00:00 3,1 1,3 31 17 77 42 S 10 0 0,2
15.01.2020 04:00:00 2,9 1,1 27 15 72 39 SSE 11 0 0,2
15.01.2020 03:00:00 2,8 1,1 19 10 59 32 SSE 8 0 0,6
15.01.2020 02:00:00 2,5 1,1 24 13 66 35 S 3,4 0 0,4
15.01.2020 01:00:00 2,4 0,4 19 11 59 32 SSE 8 0 -
15.01.2020 00:00:00 2,4 0,0 21 12 63 34 S 20 0 0,4
14.01.2020 23:00:00 1,8 0,2 21 11 52 28 SSE 3,5 0 0,4
14.01.2020 22:00:00 2,0 -0,5 21 12 55 30 SSE 10 0 0,0
14.01.2020 21:00:00 1,7 0,0 25 13 57 31 S 20 0 0,0
14.01.2020 20:00:00 2,2 0,0 29 16 61 33 S 20 0 0,0
14.01.2020 19:00:00 2,2 -0,5 24 13 60 32 SSW 20 0 -
14.01.2020 18:00:00 2,0 -0,5 25 13 60 33 S 20 0 0,0
14.01.2020 17:00:00 1,4 -0,5 25 14 57 31 S 18 0 0,0
14.01.2020 16:00:00 1,1 -0,7 28 15 59 32 S 13 0 0,0
14.01.2020 15:00:00 0,9 -1,0 23 12 56 30 S 13 4 0,0
14.01.2020 14:00:00 0,3 -1,2 19 11 51 27 S 0,8 2 0,0
14.01.2020 13:00:00 0,1 -1,4 20 11 49 27 S 2,5 1 -
14.01.2020 12:00:00 0,5 -1,7 34 18 55 30 S 0,9 24 0,2
14.01.2020 11:00:00 0,6 -1,2 29 15 62 33 SSE 9 0 0,0
14.01.2020 10:00:00 -0,8 -1,4 34 18 63 34 E 0,8 0 0,0
14.01.2020 09:00:00 -1,2 -2,0 36 19 58 31 E 0,2 0 0,0
14.01.2020 08:00:00 -1,5 -2,2 35 19 50 27 E 0,1 0 0,0
14.01.2020 07:00:00 -1,5 -2,5 32 17 47 25 E 0,2 0 -
14.01.2020 06:00:00 -0,2 -1,2 31 17 51 28 E 0,3 0 0,0
14.01.2020 05:00:00 -0,8 -2,2 30 16 58 31 E 1,0 0 0,0
14.01.2020 04:00:00 3,3 -2,2 10 6 49 26 SE 20 0 0,0
14.01.2020 03:00:00 1,5 -2,5 9 5 39 21 NNE 20 0 0,0
14.01.2020 02:00:00 3,2 -3,3 11 6 54 29 S 20 0 0,0
14.01.2020 01:00:00 -1,3 -3,0 23 12 63 34 E 15 0 -
14.01.2020 00:00:00 -2,8 -3,9 14 8 49 26 ESE 2,1 0 0,0
13.01.2020 23:00:00 -3,1 -4,5 27 15 43 23 ENE 0,3 0 0,0
13.01.2020 22:00:00 -1,7 -4,8 14 8 35 19 SE 20 0 0,0
13.01.2020 21:00:00 -3,3 -5,4 11 6 22 12 ENE 20 0 0,0

tt = Température de l'air
td = dewpoint
ff = Vitesse du vent
fx = gusts
dd = Direction du vent
vv = visibility
sd = Ensoleillement
rr = Quantités de précipitations

stations d'obs. à proximité